sensor_id;sensor_type;location;lat;lon;timestamp;P1;durP1;ratioP1;P2;durP2;ratioP2
58896;SDS011;44677;52.378;10.400;2023-03-08T16:34:06;5.80;;;4.50;;
58896;SDS011;44677;52.378;10.400;2023-03-08T16:36:32;12.30;;;8.50;;
58896;SDS011;44677;52.378;10.400;2023-03-08T16:38:57;11.80;;;8.20;;
58896;SDS011;44677;52.378;10.400;2023-03-08T16:41:23;8.90;;;7.10;;
58896;SDS011;44677;52.378;10.400;2023-03-08T16:43:50;9.60;;;7.00;;
58896;SDS011;44677;52.378;10.400;2023-03-08T16:46:18;9.40;;;6.90;;
58896;SDS011;44677;52.378;10.400;2023-03-08T16:48:45;9.20;;;5.70;;
58896;SDS011;44677;52.378;10.400;2023-03-08T16:51:14;8.30;;;6.20;;
58896;SDS011;44677;52.378;10.400;2023-03-08T16:53:43;9.00;;;6.70;;
58896;SDS011;44677;52.378;10.400;2023-03-08T16:56:15;10.00;;;6.50;;
58896;SDS011;44677;52.378;10.400;2023-03-08T16:58:44;9.60;;;7.30;;
58896;SDS011;44677;52.378;10.400;2023-03-08T17:01:11;9.30;;;6.70;;
58896;SDS011;44677;52.378;10.400;2023-03-08T17:03:37;8.60;;;6.10;;
58896;SDS011;44677;52.378;10.400;2023-03-08T17:06:05;9.40;;;6.80;;
58896;SDS011;44677;52.378;10.400;2023-03-08T17:08:31;10.60;;;7.60;;
58896;SDS011;44677;52.378;10.400;2023-03-08T17:10:57;10.50;;;7.70;;
58896;SDS011;44677;52.378;10.400;2023-03-08T17:13:22;10.40;;;7.10;;
58896;SDS011;44677;52.378;10.400;2023-03-08T17:15:48;9.90;;;7.00;;
58896;SDS011;44677;52.378;10.400;2023-03-08T17:18:13;11.70;;;7.60;;
58896;SDS011;44677;52.378;10.400;2023-03-08T17:20:39;11.10;;;8.10;;
58896;SDS011;44677;52.378;10.400;2023-03-08T17:23:05;10.50;;;8.10;;
58896;SDS011;44677;52.378;10.400;2023-03-08T17:25:34;10.70;;;8.00;;
58896;SDS011;44677;52.378;10.400;2023-03-08T17:28:00;9.60;;;7.30;;
58896;SDS011;44677;52.378;10.400;2023-03-08T17:30:26;9.70;;;7.50;;
58896;SDS011;44677;52.378;10.400;2023-03-08T17:32:52;12.10;;;8.10;;
58896;SDS011;44677;52.378;10.400;2023-03-08T17:35:17;11.70;;;7.90;;
58896;SDS011;44677;52.378;10.400;2023-03-08T17:37:42;11.90;;;8.40;;
58896;SDS011;44677;52.378;10.400;2023-03-08T17:40:09;11.80;;;8.50;;
58896;SDS011;44677;52.378;10.400;2023-03-08T17:42:36;14.00;;;8.40;;
58896;SDS011;44677;52.378;10.400;2023-03-08T17:45:02;10.30;;;8.20;;
58896;SDS011;44677;52.378;10.400;2023-03-08T17:47:34;12.20;;;8.40;;
58896;SDS011;44677;52.378;10.400;2023-03-08T17:50:00;13.10;;;8.70;;
58896;SDS011;44677;52.378;10.400;2023-03-08T17:52:25;11.50;;;8.40;;
58896;SDS011;44677;52.378;10.400;2023-03-08T17:54:51;12.70;;;8.10;;
58896;SDS011;44677;52.378;10.400;2023-03-08T17:57:18;13.10;;;9.10;;
58896;SDS011;44677;52.378;10.400;2023-03-08T17:59:49;12.00;;;8.90;;
58896;SDS011;44677;52.378;10.400;2023-03-08T18:02:16;12.90;;;9.40;;
58896;SDS011;44677;52.378;10.400;2023-03-08T18:04:42;12.50;;;8.90;;
58896;SDS011;44677;52.378;10.400;2023-03-08T18:07:11;12.80;;;8.90;;
58896;SDS011;44677;52.378;10.400;2023-03-08T18:09:40;12.70;;;8.90;;
58896;SDS011;44677;52.378;10.400;2023-03-08T18:12:05;13.60;;;9.30;;
58896;SDS011;44677;52.378;10.400;2023-03-08T18:14:33;15.30;;;9.50;;
58896;SDS011;44677;52.378;10.400;2023-03-08T18:16:59;12.90;;;9.00;;
58896;SDS011;44677;52.378;10.400;2023-03-08T18:19:25;13.30;;;9.50;;
58896;SDS011;44677;52.378;10.400;2023-03-08T18:21:51;13.50;;;9.40;;
58896;SDS011;44677;52.378;10.400;2023-03-08T18:24:19;11.30;;;8.80;;
58896;SDS011;44677;52.378;10.400;2023-03-08T18:26:45;11.10;;;8.40;;
58896;SDS011;44677;52.378;10.400;2023-03-08T18:29:11;13.90;;;8.40;;
58896;SDS011;44677;52.378;10.400;2023-03-08T18:31:37;11.80;;;8.40;;
58896;SDS011;44677;52.378;10.400;2023-03-08T18:34:03;11.10;;;8.00;;
58896;SDS011;44677;52.378;10.400;2023-03-08T18:36:29;11.30;;;8.50;;
58896;SDS011;44677;52.378;10.400;2023-03-08T18:38:54;10.70;;;7.70;;
58896;SDS011;44677;52.378;10.400;2023-03-08T18:41:21;12.30;;;8.10;;
58896;SDS011;44677;52.378;10.400;2023-03-08T18:43:49;11.40;;;7.70;;
58896;SDS011;44677;52.378;10.400;2023-03-08T18:46:15;12.10;;;7.80;;
58896;SDS011;44677;52.378;10.400;2023-03-08T18:48:41;11.40;;;8.00;;
58896;SDS011;44677;52.378;10.400;2023-03-08T18:51:06;12.30;;;8.90;;
58896;SDS011;44677;52.378;10.400;2023-03-08T18:53:32;11.60;;;7.70;;
58896;SDS011;44677;52.378;10.400;2023-03-08T18:55:59;12.80;;;8.40;;
58896;SDS011;44677;52.378;10.400;2023-03-08T18:58:25;12.60;;;8.50;;
58896;SDS011;44677;52.378;10.400;2023-03-08T19:00:51;14.50;;;9.50;;
58896;SDS011;44677;52.378;10.400;2023-03-08T19:03:18;11.50;;;8.60;;
58896;SDS011;44677;52.378;10.400;2023-03-08T19:05:44;13.50;;;8.70;;
58896;SDS011;44677;52.378;10.400;2023-03-08T19:08:09;12.80;;;8.20;;
58896;SDS011;44677;52.378;10.400;2023-03-08T19:10:34;12.30;;;8.60;;
58896;SDS011;44677;52.378;10.400;2023-03-08T19:13:00;13.50;;;9.20;;
58896;SDS011;44677;52.378;10.400;2023-03-08T19:15:26;12.90;;;9.30;;
58896;SDS011;44677;52.378;10.400;2023-03-08T19:17:55;14.50;;;9.20;;
58896;SDS011;44677;52.378;10.400;2023-03-08T19:20:22;14.80;;;8.00;;
58896;SDS011;44677;52.378;10.400;2023-03-08T19:25:14;13.50;;;8.30;;
58896;SDS011;44677;52.378;10.400;2023-03-08T19:27:40;11.80;;;8.30;;
58896;SDS011;44677;52.378;10.400;2023-03-08T19:30:05;10.70;;;7.60;;
58896;SDS011;44677;52.378;10.400;2023-03-08T19:32:31;10.30;;;8.30;;
58896;SDS011;44677;52.378;10.400;2023-03-08T19:34:57;9.40;;;7.40;;
58896;SDS011;44677;52.378;10.400;2023-03-08T19:37:22;11.90;;;8.10;;
58896;SDS011;44677;52.378;10.400;2023-03-08T19:39:47;9.70;;;7.50;;
58896;SDS011;44677;52.378;10.400;2023-03-08T19:42:16;9.30;;;7.90;;
58896;SDS011;44677;52.378;10.400;2023-03-08T19:44:45;9.70;;;7.20;;
58896;SDS011;44677;52.378;10.400;2023-03-08T19:47:16;10.40;;;8.00;;
58896;SDS011;44677;52.378;10.400;2023-03-08T19:49:42;9.90;;;6.90;;
58896;SDS011;44677;52.378;10.400;2023-03-08T19:52:09;12.40;;;7.70;;
58896;SDS011;44677;52.378;10.400;2023-03-08T19:54:36;12.10;;;8.00;;
58896;SDS011;44677;52.378;10.400;2023-03-08T19:57:02;9.70;;;7.10;;
58896;SDS011;44677;52.378;10.400;2023-03-08T19:59:28;10.30;;;7.00;;
58896;SDS011;44677;52.378;10.400;2023-03-08T20:01:53;9.80;;;6.70;;
58896;SDS011;44677;52.378;10.400;2023-03-08T20:04:19;11.30;;;7.00;;
58896;SDS011;44677;52.378;10.400;2023-03-08T20:06:46;10.00;;;7.00;;
58896;SDS011;44677;52.378;10.400;2023-03-08T20:09:13;7.80;;;6.80;;
58896;SDS011;44677;52.378;10.400;2023-03-08T20:11:46;8.40;;;6.50;;
58896;SDS011;44677;52.378;10.400;2023-03-08T20:14:13;9.80;;;6.00;;
58896;SDS011;44677;52.378;10.400;2023-03-08T20:16:38;10.30;;;7.60;;
58896;SDS011;44677;52.378;10.400;2023-03-08T20:19:04;10.00;;;7.10;;
58896;SDS011;44677;52.378;10.400;2023-03-08T20:21:29;9.60;;;7.30;;
58896;SDS011;44677;52.378;10.400;2023-03-08T20:23:56;10.30;;;7.00;;
58896;SDS011;44677;52.378;10.400;2023-03-08T20:26:25;9.40;;;6.90;;
58896;SDS011;44677;52.378;10.400;2023-03-08T20:28:52;9.80;;;7.40;;
58896;SDS011;44677;52.378;10.400;2023-03-08T20:31:18;8.60;;;6.50;;
58896;SDS011;44677;52.378;10.400;2023-03-08T20:33:44;9.40;;;6.80;;
58896;SDS011;44677;52.378;10.400;2023-03-08T20:36:09;10.40;;;7.10;;
58896;SDS011;44677;52.378;10.400;2023-03-08T20:38:35;9.00;;;6.60;;
58896;SDS011;44677;52.378;10.400;2023-03-08T20:41:05;10.10;;;6.70;;
58896;SDS011;44677;52.378;10.400;2023-03-08T20:43:33;7.70;;;6.50;;
58896;SDS011;44677;52.378;10.400;2023-03-08T20:46:01;9.90;;;6.50;;
58896;SDS011;44677;52.378;10.400;2023-03-08T20:48:30;8.70;;;6.70;;
58896;SDS011;44677;52.378;10.400;2023-03-08T20:50:59;8.50;;;6.20;;
58896;SDS011;44677;52.378;10.400;2023-03-08T20:53:26;10.50;;;7.00;;
58896;SDS011;44677;52.378;10.400;2023-03-08T20:55:52;10.80;;;7.30;;
58896;SDS011;44677;52.378;10.400;2023-03-08T20:58:18;10.40;;;7.00;;
58896;SDS011;44677;52.378;10.400;2023-03-08T21:00:43;10.30;;;7.10;;
58896;SDS011;44677;52.378;10.400;2023-03-08T21:03:09;10.50;;;7.40;;
58896;SDS011;44677;52.378;10.400;2023-03-08T21:05:34;12.90;;;7.80;;
58896;SDS011;44677;52.378;10.400;2023-03-08T21:08:01;11.90;;;7.80;;
58896;SDS011;44677;52.378;10.400;2023-03-08T21:10:27;10.90;;;7.00;;
58896;SDS011;44677;52.378;10.400;2023-03-08T21:12:53;10.70;;;7.40;;
58896;SDS011;44677;52.378;10.400;2023-03-08T21:15:18;11.70;;;7.40;;
58896;SDS011;44677;52.378;10.400;2023-03-08T21:17:44;12.30;;;7.70;;
58896;SDS011;44677;52.378;10.400;2023-03-08T21:20:09;11.00;;;6.80;;
58896;SDS011;44677;52.378;10.400;2023-03-08T21:22:35;13.30;;;8.60;;
58896;SDS011;44677;52.378;10.400;2023-03-08T21:25:02;11.30;;;7.50;;
58896;SDS011;44677;52.378;10.400;2023-03-08T21:29:55;12.20;;;7.30;;
58896;SDS011;44677;52.378;10.400;2023-03-08T21:32:20;13.60;;;8.40;;
58896;SDS011;44677;52.378;10.400;2023-03-08T21:34:45;12.40;;;8.70;;
58896;SDS011;44677;52.378;10.400;2023-03-08T21:37:11;13.00;;;8.50;;
58896;SDS011;44677;52.378;10.400;2023-03-08T21:39:36;14.00;;;9.10;;
58896;SDS011;44677;52.378;10.400;2023-03-08T21:42:02;11.70;;;7.60;;
58896;SDS011;44677;52.378;10.400;2023-03-08T21:44:27;10.60;;;7.80;;
58896;SDS011;44677;52.378;10.400;2023-03-08T21:46:53;10.90;;;7.30;;
58896;SDS011;44677;52.378;10.400;2023-03-08T21:49:21;13.50;;;8.10;;
58896;SDS011;44677;52.378;10.400;2023-03-08T21:51:48;9.40;;;7.00;;
58896;SDS011;44677;52.378;10.400;2023-03-08T21:54:15;13.50;;;8.50;;
58896;SDS011;44677;52.378;10.400;2023-03-08T21:56:40;10.80;;;7.40;;
58896;SDS011;44677;52.378;10.400;2023-03-08T21:59:06;10.10;;;7.30;;
58896;SDS011;44677;52.378;10.400;2023-03-08T22:01:31;13.10;;;8.40;;
58896;SDS011;44677;52.378;10.400;2023-03-08T22:03:58;9.10;;;7.00;;
58896;SDS011;44677;52.378;10.400;2023-03-08T22:06:24;10.30;;;8.00;;
58896;SDS011;44677;52.378;10.400;2023-03-08T22:08:49;11.90;;;7.60;;
58896;SDS011;44677;52.378;10.400;2023-03-08T22:11:16;12.20;;;9.10;;
58896;SDS011;44677;52.378;10.400;2023-03-08T22:13:43;10.80;;;7.70;;
58896;SDS011;44677;52.378;10.400;2023-03-08T22:16:12;11.10;;;8.00;;
58896;SDS011;44677;52.378;10.400;2023-03-08T22:18:37;13.20;;;8.70;;
58896;SDS011;44677;52.378;10.400;2023-03-08T22:21:03;11.10;;;7.30;;
58896;SDS011;44677;52.378;10.400;2023-03-08T22:23:28;11.50;;;7.90;;
58896;SDS011;44677;52.378;10.400;2023-03-08T22:25:55;9.90;;;7.70;;
58896;SDS011;44677;52.378;10.400;2023-03-08T22:28:21;12.60;;;8.40;;
58896;SDS011;44677;52.378;10.400;2023-03-08T22:30:46;12.20;;;8.20;;
58896;SDS011;44677;52.378;10.400;2023-03-08T22:33:12;10.10;;;7.70;;
58896;SDS011;44677;52.378;10.400;2023-03-08T22:35:37;11.30;;;7.90;;
58896;SDS011;44677;52.378;10.400;2023-03-08T22:38:03;14.10;;;8.10;;
58896;SDS011;44677;52.378;10.400;2023-03-08T22:40:29;12.30;;;8.30;;
58896;SDS011;44677;52.378;10.400;2023-03-08T22:42:54;11.40;;;7.90;;
58896;SDS011;44677;52.378;10.400;2023-03-08T22:45:20;12.00;;;8.70;;
58896;SDS011;44677;52.378;10.400;2023-03-08T22:47:45;12.00;;;8.30;;
58896;SDS011;44677;52.378;10.400;2023-03-08T22:50:11;13.20;;;7.90;;
58896;SDS011;44677;52.378;10.400;2023-03-08T22:52:36;11.70;;;8.40;;
58896;SDS011;44677;52.378;10.400;2023-03-08T22:55:02;13.00;;;8.40;;
58896;SDS011;44677;52.378;10.400;2023-03-08T22:57:28;10.90;;;7.20;;
58896;SDS011;44677;52.378;10.400;2023-03-08T22:59:54;10.30;;;7.50;;
58896;SDS011;44677;52.378;10.400;2023-03-08T23:02:20;14.20;;;8.60;;
58896;SDS011;44677;52.378;10.400;2023-03-08T23:04:45;10.70;;;7.40;;
58896;SDS011;44677;52.378;10.400;2023-03-08T23:07:10;13.50;;;8.90;;
58896;SDS011;44677;52.378;10.400;2023-03-08T23:09:36;12.80;;;8.30;;
58896;SDS011;44677;52.378;10.400;2023-03-08T23:12:02;12.90;;;8.40;;
58896;SDS011;44677;52.378;10.400;2023-03-08T23:14:30;9.60;;;7.30;;
58896;SDS011;44677;52.378;10.400;2023-03-08T23:16:57;11.90;;;8.10;;
58896;SDS011;44677;52.378;10.400;2023-03-08T23:19:22;12.90;;;8.00;;
58896;SDS011;44677;52.378;10.400;2023-03-08T23:21:48;12.90;;;7.80;;
58896;SDS011;44677;52.378;10.400;2023-03-08T23:24:14;12.10;;;8.10;;
58896;SDS011;44677;52.378;10.400;2023-03-08T23:26:40;10.30;;;7.60;;
58896;SDS011;44677;52.378;10.400;2023-03-08T23:31:33;11.40;;;7.30;;
58896;SDS011;44677;52.378;10.400;2023-03-08T23:36:26;11.10;;;7.30;;
58896;SDS011;44677;52.378;10.400;2023-03-08T23:38:52;12.50;;;7.70;;
58896;SDS011;44677;52.378;10.400;2023-03-08T23:41:19;12.40;;;7.70;;
58896;SDS011;44677;52.378;10.400;2023-03-08T23:43:45;11.30;;;7.70;;
58896;SDS011;44677;52.378;10.400;2023-03-08T23:46:12;11.10;;;7.20;;
58896;SDS011;44677;52.378;10.400;2023-03-08T23:48:39;11.80;;;7.70;;
58896;SDS011;44677;52.378;10.400;2023-03-08T23:51:06;12.20;;;8.00;;
58896;SDS011;44677;52.378;10.400;2023-03-08T23:53:33;10.20;;;7.30;;
58896;SDS011;44677;52.378;10.400;2023-03-08T23:55:58;12.20;;;7.60;;
58896;SDS011;44677;52.378;10.400;2023-03-08T23:58:24;12.70;;;7.90;;
